Time;durP1;ratioP1;P1;durP2;ratioP2;P2;SDS_P1;SDS_P2;PMS_P1;PMS_P2;Temp;Humidity;BMP_temperature;BMP_pressure;BME280_temperature;BME280_humidity;BME280_pressure;Samples;Min_cycle;Max_cycle;Signal;HPM_P1;HPM_P2
2022/04/09 00:02:21;;;;;;;0.10;0.10;;;7.40;99.90;;;;;;4935346;29;20019;-76
2022/04/09 00:04:47;;;;;;;0.30;0.30;;;7.40;99.90;;;;;;4952813;29;20035;-76
2022/04/09 00:07:13;;;;;;;0.10;0.10;;;7.40;99.90;;;;;;4952389;29;20105;-76
2022/04/09 00:09:39;;;;;;;0.10;0.10;;;7.40;99.90;;;;;;4935137;29;20416;-76
2022/04/09 00:12:05;;;;;;;0.10;0.10;;;7.30;99.90;;;;;;4952588;29;20077;-76
2022/04/09 00:14:31;;;;;;;0.10;0.10;;;7.30;99.90;;;;;;4952283;29;20050;-76
2022/04/09 00:16:56;;;;;;;1.90;0.20;;;7.40;99.90;;;;;;4952666;29;20175;-76
2022/04/09 00:19:22;;;;;;;1.00;0.20;;;7.30;99.90;;;;;;4952114;29;20466;-75
2022/04/09 00:21:48;;;;;;;0.10;0.10;;;7.20;99.90;;;;;;4952179;29;20031;-76
2022/04/09 00:24:13;;;;;;;0.10;0.10;;;7.20;99.90;;;;;;4952194;28;20350;-76
2022/04/09 00:26:40;;;;;;;0.20;0.20;;;7.10;99.90;;;;;;4952472;29;20027;-76
2022/04/09 00:29:06;;;;;;;0.10;0.10;;;7.00;99.90;;;;;;4952467;28;20051;-76
2022/04/09 00:31:32;;;;;;;0.20;0.10;;;7.00;99.90;;;;;;4952243;29;20043;-76
2022/04/09 00:33:58;;;;;;;0.25;0.20;;;6.90;99.90;;;;;;4952538;29;20027;-76
2022/04/09 00:36:24;;;;;;;0.50;0.50;;;6.80;99.90;;;;;;4952202;29;20035;-76
2022/04/09 00:38:50;;;;;;;0.57;0.57;;;6.40;99.90;;;;;;4951830;29;20375;-76
2022/04/09 00:41:15;;;;;;;0.43;0.43;;;4.90;99.90;;;;;;4951940;29;20066;-76
2022/04/09 00:43:43;;;;;;;0.35;0.35;;;3.80;99.90;;;;;;4951666;29;20122;-76
2022/04/09 00:46:13;;;;;;;0.40;0.40;;;3.40;99.90;;;;;;4951511;29;20066;-76
2022/04/09 00:48:43;;;;;;;1.35;0.95;;;3.20;99.90;;;;;;4951465;29;20023;-76
2022/04/09 00:51:09;;;;;;;0.75;0.75;;;3.00;99.90;;;;;;4951565;29;20027;-76
2022/04/09 00:53:36;;;;;;;0.68;0.68;;;2.90;99.90;;;;;;4933670;29;20459;-76
2022/04/09 00:56:13;;;;;;;0.80;0.80;;;2.80;99.90;;;;;;4951194;29;20105;-75
2022/04/09 00:58:43;;;;;;;2.28;0.98;;;2.80;99.90;;;;;;4951569;28;20022;-76
2022/04/09 01:01:11;;;;;;;0.70;0.70;;;2.80;99.90;;;;;;4934106;29;20105;-76
2022/04/09 01:03:37;;;;;;;0.70;0.70;;;2.60;99.90;;;;;;4951202;29;20480;-76
2022/04/09 01:06:05;;;;;;;2.35;1.10;;;2.50;99.90;;;;;;4951261;29;20031;-76
2022/04/09 01:08:31;;;;;;;0.70;0.70;;;2.40;99.90;;;;;;4951144;29;20077;-76
2022/04/09 01:10:57;;;;;;;0.70;0.70;;;2.40;99.90;;;;;;4951242;29;20500;-76
2022/04/09 01:13:24;;;;;;;0.90;0.90;;;2.20;99.90;;;;;;4951011;29;20023;-76
2022/04/09 01:15:50;;;;;;;0.60;0.60;;;2.10;99.90;;;;;;4951758;29;20058;-76
2022/04/09 01:18:17;;;;;;;1.25;0.65;;;1.90;99.90;;;;;;4951043;29;20059;-76
2022/04/09 01:20:42;;;;;;;0.60;0.60;;;1.80;99.90;;;;;;4934189;29;20099;-77
2022/04/09 01:23:08;;;;;;;0.30;0.30;;;1.70;99.90;;;;;;4951265;29;20127;-76
2022/04/09 01:25:34;;;;;;;0.32;0.32;;;1.60;99.90;;;;;;4951190;29;20043;-76
2022/04/09 01:28:01;;;;;;;0.30;0.30;;;1.40;99.90;;;;;;4934024;29;20040;-76
2022/04/09 01:30:29;;;;;;;0.40;0.40;;;1.30;99.90;;;;;;4951119;29;20132;-77
2022/04/09 01:32:55;;;;;;;0.40;0.40;;;0.80;99.90;;;;;;4951390;29;20033;-78
2022/04/09 01:35:21;;;;;;;0.35;0.32;;;1.20;99.90;;;;;;4950936;28;20023;-77
2022/04/09 01:37:48;;;;;;;0.30;0.30;;;1.10;99.90;;;;;;4953460;29;20319;-77
2022/04/09 01:40:14;;;;;;;0.30;0.30;;;1.10;99.90;;;;;;4955280;29;20039;-76
2022/04/09 01:42:39;;;;;;;0.20;0.20;;;1.10;99.90;;;;;;4955237;29;20200;-77
2022/04/09 01:45:09;;;;;;;1.02;0.70;;;2.10;99.90;;;;;;4954932;29;20114;-77
2022/04/09 01:47:40;;;;;;;;;;;1.00;99.90;;;;;;4955520;29;20413;-77
2022/04/09 01:50:08;;;;;;;0.30;0.30;;;1.00;99.90;;;;;;4954797;29;19946;-76
2022/04/09 01:52:34;;;;;;;0.30;0.30;;;1.00;99.90;;;;;;4954481;29;20033;-77
2022/04/09 01:54:59;;;;;;;0.40;0.40;;;0.90;99.90;;;;;;4937109;29;20023;-77
2022/04/09 01:57:25;;;;;;;0.43;0.43;;;0.90;99.90;;;;;;4954960;29;20061;-77
2022/04/09 01:59:51;;;;;;;0.20;0.20;;;0.90;99.90;;;;;;4954755;29;20164;-77
2022/04/09 02:02:16;;;;;;;0.82;0.40;;;0.80;99.90;;;;;;4937481;29;20074;-77
2022/04/09 02:04:42;;;;;;;0.30;0.30;;;0.80;99.90;;;;;;4954724;29;20089;-76
2022/04/09 02:07:08;;;;;;;0.30;0.30;;;0.80;99.90;;;;;;4937070;29;20023;-76
2022/04/09 02:09:33;;;;;;;0.28;0.28;;;0.70;99.90;;;;;;4937235;29;20170;-77
2022/04/09 02:12:02;;;;;;;0.30;0.30;;;0.70;99.90;;;;;;4954953;29;20086;-76
2022/04/09 02:14:28;;;;;;;0.20;0.20;;;0.70;99.90;;;;;;4954342;29;20094;-77
2022/04/09 02:16:54;;;;;;;0.30;0.30;;;0.70;99.90;;;;;;4954227;29;20388;-76
2022/04/09 02:19:19;;;;;;;0.38;0.38;;;0.70;99.90;;;;;;4954188;29;20191;-78
2022/04/09 02:21:45;;;;;;;0.20;0.20;;;0.70;99.90;;;;;;4937210;29;20567;-76
2022/04/09 02:24:10;;;;;;;0.30;0.30;;;0.70;99.90;;;;;;4953966;29;20493;-76
2022/04/09 02:26:36;;;;;;;0.45;0.43;;;0.80;99.90;;;;;;4954217;29;20050;-77
2022/04/09 02:29:02;;;;;;;0.30;0.20;;;0.80;99.90;;;;;;4936555;29;20082;-77
2022/04/09 02:31:27;;;;;;;0.10;0.10;;;0.80;99.90;;;;;;4936580;29;20028;-76
2022/04/09 02:33:54;;;;;;;0.10;0.10;;;0.80;99.90;;;;;;4936829;29;20027;-77
2022/04/09 02:36:21;;;;;;;0.13;0.13;;;0.80;99.90;;;;;;4936408;29;20078;-77
2022/04/09 02:38:47;;;;;;;0.25;0.25;;;0.80;99.90;;;;;;4953735;29;20026;-77
2022/04/09 02:41:12;;;;;;;0.22;0.22;;;0.80;99.90;;;;;;4936265;29;20039;-77
2022/04/09 02:43:40;;;;;;;0.15;0.15;;;0.80;99.90;;;;;;4953741;29;20023;-77
2022/04/09 02:46:06;;;;;;;0.10;0.10;;;0.80;99.90;;;;;;4936214;29;20380;-77
2022/04/09 02:48:32;;;;;;;0.10;0.10;;;0.90;99.90;;;;;;4953136;28;20035;-78
2022/04/09 02:50:57;;;;;;;0.10;0.10;;;0.90;99.90;;;;;;4935728;29;20039;-77
2022/04/09 02:53:23;;;;;;;0.35;0.10;;;1.00;99.90;;;;;;4936032;29;20038;-78
2022/04/09 02:55:49;;;;;;;0.10;0.10;;;1.40;99.90;;;;;;4936068;29;20042;-77
2022/04/09 02:58:15;;;;;;;0.10;0.10;;;1.10;99.90;;;;;;4953171;29;20528;-78
2022/04/09 03:00:40;;;;;;;0.00;0.00;;;1.30;99.90;;;;;;4935914;29;20082;-78
2022/04/09 03:03:06;;;;;;;0.10;0.10;;;1.20;99.90;;;;;;4953693;29;20320;-78
2022/04/09 03:05:32;;;;;;;0.10;0.10;;;1.40;99.90;;;;;;4935906;29;20152;-78
2022/04/09 03:07:57;;;;;;;0.00;0.00;;;1.50;99.90;;;;;;4935905;29;20035;-78
2022/04/09 03:10:24;;;;;;;0.10;0.10;;;1.40;99.90;;;;;;4952905;29;20027;-78
2022/04/09 03:12:49;;;;;;;0.10;0.10;;;1.30;99.90;;;;;;4936359;29;20126;-77
2022/04/09 03:15:16;;;;;;;0.20;0.20;;;1.50;99.90;;;;;;4935735;29;20154;-78
2022/04/09 03:17:42;;;;;;;0.10;0.10;;;2.60;99.90;;;;;;4936029;29;20031;-77
2022/04/09 03:20:09;;;;;;;0.10;0.10;;;1.40;99.90;;;;;;4953111;29;20038;-78
2022/04/09 03:22:35;;;;;;;0.10;0.10;;;1.30;99.90;;;;;;4953291;29;20059;-78
2022/04/09 03:25:01;;;;;;;0.17;0.17;;;2.70;99.90;;;;;;4935802;29;20031;-78
2022/04/09 03:27:27;;;;;;;0.20;0.20;;;2.90;99.90;;;;;;4953135;29;20024;-77
2022/04/09 03:29:53;;;;;;;0.30;0.30;;;1.40;99.90;;;;;;4935795;29;20113;-77
2022/04/09 03:32:21;;;;;;;0.20;0.20;;;2.60;99.90;;;;;;4935496;29;20035;-78
2022/04/09 03:34:46;;;;;;;0.15;0.15;;;2.60;99.90;;;;;;4952934;29;20372;-77
2022/04/09 03:37:12;;;;;;;0.20;0.20;;;3.10;99.90;;;;;;4935888;29;20028;-78
2022/04/09 03:39:38;;;;;;;0.25;0.25;;;2.90;99.90;;;;;;4952886;29;20089;-78
2022/04/09 03:42:05;;;;;;;0.20;0.20;;;2.60;99.90;;;;;;4952825;29;20042;-78
2022/04/09 03:44:31;;;;;;;0.40;0.40;;;1.50;99.90;;;;;;4935551;28;20405;-77
2022/04/09 03:47:01;;;;;;;0.20;0.20;;;2.30;99.90;;;;;;4953389;29;20038;-77
2022/04/09 03:49:28;;;;;;;0.50;0.50;;;1.40;99.90;;;;;;4935530;29;20484;-78
2022/04/09 03:51:54;;;;;;;1.02;0.38;;;1.50;99.90;;;;;;4935516;29;20027;-77
2022/04/09 03:54:19;;;;;;;0.40;0.40;;;2.60;99.90;;;;;;4952492;29;20033;-77
2022/04/09 03:56:45;;;;;;;0.28;0.28;;;2.80;99.90;;;;;;4953042;29;20531;-77
2022/04/09 03:59:11;;;;;;;0.40;0.32;;;2.40;99.90;;;;;;4934692;29;20086;-77
2022/04/09 04:01:37;;;;;;;0.40;0.40;;;1.60;99.90;;;;;;4952759;29;20102;-77
2022/04/09 04:04:03;;;;;;;0.30;0.30;;;2.50;99.90;;;;;;4935425;29;20472;-77
2022/04/09 04:06:29;;;;;;;0.30;0.30;;;1.60;99.90;;;;;;4952677;29;20122;-77
2022/04/09 04:08:58;;;;;;;0.28;0.28;;;2.10;99.90;;;;;;4952430;29;20051;-78
2022/04/09 04:11:24;;;;;;;0.30;0.30;;;1.60;99.90;;;;;;4952869;29;20019;-77
2022/04/09 04:13:50;;;;;;;1.85;0.40;;;1.70;99.90;;;;;;4935178;29;20188;-77
2022/04/09 04:16:16;;;;;;;0.30;0.30;;;2.10;99.90;;;;;;4935453;29;20179;-77
2022/04/09 04:18:42;;;;;;;0.60;0.50;;;2.60;99.90;;;;;;4935316;29;20031;-77
2022/04/09 04:21:08;;;;;;;0.32;0.32;;;2.50;99.90;;;;;;4952483;29;20125;-77
2022/04/09 04:23:34;;;;;;;0.30;0.30;;;2.40;99.90;;;;;;4951917;29;20102;-77
2022/04/09 04:26:01;;;;;;;0.50;0.45;;;2.10;99.90;;;;;;4952026;29;20122;-77
2022/04/09 04:28:26;;;;;;;0.30;0.30;;;2.90;99.90;;;;;;4952195;28;20043;-77
2022/04/09 04:30:52;;;;;;;0.57;0.57;;;2.50;99.90;;;;;;4934922;29;20062;-77
2022/04/09 04:33:18;;;;;;;0.85;0.60;;;2.50;99.90;;;;;;4952663;29;20373;-77
2022/04/09 04:35:44;;;;;;;0.30;0.30;;;2.50;99.90;;;;;;4952854;29;20086;-77
2022/04/09 04:38:11;;;;;;;0.40;0.40;;;2.00;99.90;;;;;;4952135;29;20066;-77
2022/04/09 04:40:36;;;;;;;1.05;0.57;;;1.60;99.90;;;;;;4951606;29;20031;-78
2022/04/09 04:43:02;;;;;;;1.90;1.55;;;2.80;99.90;;;;;;4951636;29;20042;-77
2022/04/09 04:45:29;;;;;;;14.35;4.57;;;2.80;99.90;;;;;;4952085;29;20142;-77
2022/04/09 04:47:55;;;;;;;3.63;2.28;;;2.00;99.90;;;;;;4951979;29;20074;-76
2022/04/09 04:50:21;;;;;;;1.23;1.17;;;2.70;99.90;;;;;;4952049;29;20432;-77
2022/04/09 04:52:47;;;;;;;1.42;1.23;;;1.60;99.90;;;;;;4952135;29;20034;-77
2022/04/09 04:55:14;;;;;;;1.60;1.50;;;2.80;99.90;;;;;;4951553;29;20028;-77
2022/04/09 04:57:54;;;;;;;1.90;1.70;;;1.50;99.90;;;;;;4951849;29;20035;-77
2022/04/09 05:00:24;;;;;;;2.95;2.30;;;1.50;99.90;;;;;;4934174;29;20089;-77
2022/04/09 05:02:51;;;;;;;2.92;2.28;;;2.00;99.90;;;;;;4951467;29;20039;-77
2022/04/09 05:05:17;;;;;;;2.03;1.77;;;2.80;99.90;;;;;;4951642;29;20051;-76
2022/04/09 05:07:45;;;;;;;1.58;1.48;;;1.80;99.90;;;;;;4951982;29;20019;-76
2022/04/09 05:10:16;;;;;;;3.33;2.70;;;2.50;99.90;;;;;;4951294;28;20031;-77
2022/04/09 05:12:42;;;;;;;3.25;2.00;;;2.50;99.90;;;;;;4951173;29;20019;-77
2022/04/09 05:15:10;;;;;;;3.53;2.50;;;2.40;99.90;;;;;;4934692;29;20361;-77
2022/04/09 05:17:37;;;;;;;3.35;2.47;;;1.50;99.90;;;;;;4951260;29;20023;-77
2022/04/09 05:20:04;;;;;;;4.80;3.25;;;2.40;99.90;;;;;;4951153;29;20496;-77
2022/04/09 05:22:31;;;;;;;2.35;2.15;;;1.60;99.90;;;;;;4951632;29;20035;-76
2022/04/09 05:24:57;;;;;;;1.92;1.73;;;1.80;99.90;;;;;;4951269;29;20019;-77
2022/04/09 05:27:24;;;;;;;3.30;2.67;;;3.00;99.90;;;;;;4951266;29;20110;-77
2022/04/09 05:29:50;;;;;;;3.38;2.30;;;2.00;99.90;;;;;;4950971;29;20608;-76
2022/04/09 05:32:16;;;;;;;3.03;2.35;;;2.80;99.90;;;;;;4951279;29;20412;-77
2022/04/09 05:34:41;;;;;;;4.05;2.88;;;2.50;99.90;;;;;;4951035;29;20519;-77
2022/04/09 05:37:07;;;;;;;3.72;2.72;;;2.00;99.90;;;;;;4951474;29;20087;-76
2022/04/09 05:39:33;;;;;;;4.28;2.95;;;3.10;99.90;;;;;;4950859;29;20063;-76
2022/04/09 05:41:58;;;;;;;2.88;2.20;;;2.40;99.90;;;;;;4950821;29;20027;-77
2022/04/09 05:44:24;;;;;;;3.35;2.35;;;2.30;99.90;;;;;;4951142;29;20023;-76
2022/04/09 05:46:50;;;;;;;2.50;1.90;;;3.00;99.90;;;;;;4951632;29;20062;-77
2022/04/09 05:49:15;;;;;;;2.17;1.98;;;2.90;99.90;;;;;;4951169;29;20027;-76
2022/04/09 05:51:41;;;;;;;2.33;1.98;;;2.60;99.90;;;;;;4951058;29;20098;-77
2022/04/09 05:54:06;;;;;;;2.38;2.17;;;2.60;99.90;;;;;;4950787;29;20037;-78
2022/04/09 05:56:32;;;;;;;1.60;1.50;;;2.80;99.90;;;;;;4951931;29;20447;-75
2022/04/09 05:58:59;;;;;;;2.60;2.22;;;2.80;99.90;;;;;;4952768;29;20027;-78
2022/04/09 06:01:24;;;;;;;2.15;1.95;;;2.60;99.90;;;;;;4951497;29;20337;-79
2022/04/09 06:03:50;;;;;;;2.10;1.92;;;2.20;99.90;;;;;;4951855;29;20031;-76
2022/04/09 06:06:15;;;;;;;2.42;2.13;;;2.60;99.90;;;;;;4954188;29;20028;-76
2022/04/09 06:08:41;;;;;;;2.08;1.88;;;2.80;99.90;;;;;;4950875;29;20051;-76
2022/04/09 06:11:08;;;;;;;2.10;1.70;;;2.80;99.90;;;;;;4952068;29;20035;-76
2022/04/09 06:13:34;;;;;;;1.83;1.63;;;2.50;99.90;;;;;;4951582;29;20380;-76
2022/04/09 06:16:00;;;;;;;1.75;1.63;;;2.70;99.90;;;;;;4950876;29;20031;-80
2022/04/09 06:18:26;;;;;;;2.80;1.92;;;2.40;99.90;;;;;;4951335;29;20027;-76
2022/04/09 06:20:52;;;;;;;2.60;2.00;;;2.50;99.90;;;;;;4950992;29;20043;-75
2022/04/09 06:23:17;;;;;;;1.50;1.40;;;2.90;99.90;;;;;;4935131;29;20464;-75
2022/04/09 06:25:43;;;;;;;1.38;1.27;;;2.90;99.90;;;;;;4954322;29;20032;-77
2022/04/09 06:28:09;;;;;;;1.30;1.17;;;2.70;99.90;;;;;;4954619;28;20047;-76
2022/04/09 06:30:35;;;;;;;2.63;1.75;;;2.60;99.90;;;;;;4953993;29;20027;-76
2022/04/09 06:33:00;;;;;;;1.52;1.25;;;3.40;99.90;;;;;;4953851;29;20024;-78
2022/04/09 06:35:26;;;;;;;3.92;1.52;;;2.60;99.90;;;;;;4936924;29;20192;-76
2022/04/09 06:37:52;;;;;;;1.15;1.05;;;2.60;99.90;;;;;;4936662;29;20408;-76
2022/04/09 06:40:17;;;;;;;1.75;1.27;;;2.70;99.90;;;;;;4954074;29;20034;-76
2022/04/09 06:42:43;;;;;;;2.85;1.60;;;2.80;99.90;;;;;;4954926;29;20054;-76
2022/04/09 06:45:10;;;;;;;3.38;1.65;;;3.00;99.90;;;;;;4954046;29;20031;-76
2022/04/09 06:47:38;;;;;;;2.10;1.80;;;3.00;99.90;;;;;;4954123;29;20023;-76
2022/04/09 06:50:09;;;;;;;1.17;1.10;;;3.00;99.90;;;;;;4936844;29;20031;-76
2022/04/09 06:52:35;;;;;;;2.10;1.90;;;3.10;99.90;;;;;;4954015;29;20700;-76
2022/04/09 06:55:02;;;;;;;2.25;1.58;;;5.50;99.90;;;;;;4954012;29;20050;-76
2022/04/09 06:57:28;;;;;;;2.47;1.73;;;3.20;99.90;;;;;;4954299;29;20027;-76
2022/04/09 06:59:58;;;;;;;1.77;1.67;;;3.20;99.90;;;;;;4953677;29;20125;-76
2022/04/09 07:02:24;;;;;;;2.80;2.20;;;3.40;99.90;;;;;;4954480;29;20055;-76
2022/04/09 07:04:50;;;;;;;2.95;2.03;;;3.50;99.90;;;;;;4936646;29;20125;-76
2022/04/09 07:07:22;;;;;;;5.45;1.70;;;3.50;99.90;;;;;;4936834;29;20042;-76
2022/04/09 07:09:48;;;;;;;3.28;1.98;;;3.40;99.90;;;;;;4953511;29;20491;-76
2022/04/09 07:12:14;;;;;;;5.97;2.70;;;3.40;99.90;;;;;;4936444;29;20038;-76
2022/04/09 07:14:40;;;;;;;2.65;2.10;;;3.30;99.90;;;;;;4937020;29;20407;-76
2022/04/09 07:17:05;;;;;;;4.60;2.83;;;3.40;99.90;;;;;;4936153;29;20023;-76
2022/04/09 07:19:31;;;;;;;4.15;2.55;;;3.40;99.90;;;;;;4936447;29;20038;-76
2022/04/09 07:21:58;;;;;;;4.93;3.00;;;3.60;99.90;;;;;;4953897;29;20059;-75
2022/04/09 07:24:24;;;;;;;5.05;3.13;;;3.60;99.90;;;;;;4953345;29;20339;-75
2022/04/09 07:26:49;;;;;;;4.40;2.75;;;3.60;99.90;;;;;;4953755;29;20595;-75
2022/04/09 07:29:16;;;;;;;4.05;2.28;;;3.60;99.90;;;;;;4953140;29;20515;-75
2022/04/09 07:31:41;;;;;;;4.22;3.08;;;3.60;99.90;;;;;;4953324;29;20480;-75
2022/04/09 07:34:07;;;;;;;4.10;2.75;;;3.70;99.90;;;;;;4953008;28;20086;-75
2022/04/09 07:36:32;;;;;;;4.05;2.55;;;3.80;99.90;;;;;;4953319;29;20061;-75
2022/04/09 07:38:58;;;;;;;4.25;3.08;;;3.80;99.90;;;;;;4953469;29;20066;-75
2022/04/09 07:41:24;;;;;;;4.57;3.03;;;3.80;99.90;;;;;;4952992;29;20496;-75
2022/04/09 07:43:50;;;;;;;4.80;3.30;;;3.90;99.90;;;;;;4953185;29;20385;-76
2022/04/09 07:46:15;;;;;;;3.80;3.10;;;4.10;99.90;;;;;;4953450;29;20110;-76
2022/04/09 07:48:41;;;;;;;4.97;3.03;;;4.00;99.90;;;;;;4937356;29;20027;-75
2022/04/09 07:51:07;;;;;;;4.53;3.20;;;4.10;99.90;;;;;;4953143;29;20031;-75
2022/04/09 07:53:32;;;;;;;5.05;4.00;;;4.20;99.90;;;;;;4953044;29;20023;-75
2022/04/09 07:55:58;;;;;;;6.35;3.70;;;4.20;99.90;;;;;;4935551;29;20499;-76
2022/04/09 07:58:24;;;;;;;3.88;2.90;;;4.40;99.90;;;;;;4952869;29;20020;-75
2022/04/09 08:00:50;;;;;;;4.18;3.15;;;4.50;99.90;;;;;;4952768;29;20031;-76
2022/04/09 08:03:15;;;;;;;4.68;3.00;;;4.60;99.90;;;;;;4935703;29;20024;-75
2022/04/09 08:05:42;;;;;;;5.43;3.05;;;4.40;99.90;;;;;;4952850;29;20031;-75
2022/04/09 08:08:08;;;;;;;6.32;3.13;;;4.30;99.90;;;;;;4952430;29;20025;-75
2022/04/09 08:10:35;;;;;;;4.68;3.22;;;4.40;99.90;;;;;;4952876;29;20023;-75
2022/04/09 08:13:01;;;;;;;4.85;3.20;;;4.60;99.90;;;;;;4952777;29;20196;-75
2022/04/09 08:15:26;;;;;;;3.72;3.15;;;4.80;99.90;;;;;;4952442;29;20484;-75
2022/04/09 08:17:57;;;;;;;4.47;2.72;;;4.70;99.90;;;;;;4952469;29;20027;-76
2022/04/09 08:20:23;;;;;;;3.10;2.60;;;4.70;99.90;;;;;;4952655;29;20035;-75
2022/04/09 08:22:49;;;;;;;4.05;3.53;;;5.10;99.90;;;;;;4952724;29;20027;-75
2022/04/09 08:25:16;;;;;;;4.30;3.35;;;5.10;99.90;;;;;;4952805;29;20043;-76
2022/04/09 08:27:43;;;;;;;6.32;2.78;;;5.60;99.90;;;;;;4954037;29;20106;-75
2022/04/09 08:30:10;;;;;;;3.88;2.65;;;5.50;99.90;;;;;;4956123;29;20450;-76
2022/04/09 08:32:36;;;;;;;7.25;3.03;;;5.30;99.90;;;;;;4935305;29;20031;-76
2022/04/09 08:35:03;;;;;;;3.08;2.45;;;5.00;99.90;;;;;;4953078;29;20066;-75
2022/04/09 08:37:29;;;;;;;3.28;2.63;;;5.00;99.90;;;;;;4952365;29;20106;-76
2022/04/09 08:39:55;;;;;;;13.18;5.43;;;4.80;99.90;;;;;;4952239;29;20042;-76
2022/04/09 08:42:21;;;;;;;4.40;2.90;;;5.20;99.90;;;;;;4952524;29;20054;-75
2022/04/09 08:44:48;;;;;;;5.40;3.45;;;5.40;99.90;;;;;;4952406;29;20031;-76
2022/04/09 08:47:15;;;;;;;3.42;2.75;;;5.30;99.90;;;;;;4951970;29;20023;-76
2022/04/09 08:49:47;;;;;;;5.25;2.88;;;5.50;99.90;;;;;;4952190;29;20023;-76
2022/04/09 08:52:14;;;;;;;2.92;2.63;;;5.70;99.90;;;;;;4952429;29;20026;-76
2022/04/09 08:54:43;;;;;;;2.80;2.50;;;;;;;;;;4951846;29;20034;-75
2022/04/09 08:57:09;;;;;;;4.60;2.60;;;5.90;99.90;;;;;;4952488;29;20555;-75
2022/04/09 08:59:35;;;;;;;10.55;3.55;;;6.10;99.90;;;;;;4951898;29;20495;-76
2022/04/09 09:02:02;;;;;;;2.97;2.67;;;5.70;99.90;;;;;;4934533;29;20023;-75
2022/04/09 09:04:28;;;;;;;3.38;2.92;;;5.60;99.90;;;;;;4951960;28;20042;-75
2022/04/09 09:06:53;;;;;;;4.30;3.00;;;5.60;99.90;;;;;;4952220;29;20031;-76
2022/04/09 09:09:30;;;;;;;4.35;3.47;;;5.50;99.90;;;;;;4934392;29;20188;-76
2022/04/09 09:11:57;;;;;;;6.07;2.60;;;5.30;99.90;;;;;;4951945;29;20520;-76
2022/04/09 09:14:34;;;;;;;4.22;2.85;;;5.10;99.90;;;;;;4952379;29;20098;-75
2022/04/09 09:17:01;;;;;;;7.90;3.92;;;5.30;99.90;;;;;;4952390;29;20456;-76
2022/04/09 09:19:59;;;;;;;4.97;2.80;;;5.70;99.90;;;;;;4951591;29;20022;-76
2022/04/09 09:22:42;;;;;;;3.72;3.10;;;6.00;99.90;;;;;;4908980;29;20047;-76
2022/04/09 09:25:09;;;;;;;3.90;3.13;;;6.10;99.90;;;;;;4951424;29;20027;-76
2022/04/09 09:27:36;;;;;;;3.22;2.92;;;6.10;99.90;;;;;;4951836;29;20430;-76
2022/04/09 09:30:07;;;;;;;2.92;2.53;;;6.40;99.90;;;;;;4951762;29;20322;-76
2022/04/09 09:32:34;;;;;;;4.57;2.28;;;6.40;99.90;;;;;;4951557;29;20028;-75
2022/04/09 09:34:59;;;;;;;4.03;2.38;;;6.10;99.90;;;;;;4951997;29;20023;-76
2022/04/09 09:37:28;;;;;;;7.00;3.33;;;6.00;99.90;;;;;;4952899;29;20027;-75
2022/04/09 09:39:54;;;;;;;4.10;2.90;;;6.40;99.90;;;;;;4951275;29;20093;-76
2022/04/09 09:42:21;;;;;;;2.60;2.10;;;6.60;99.90;;;;;;4951473;28;20516;-77
2022/04/09 09:44:48;;;;;;;2.55;2.33;;;6.90;99.90;;;;;;4934099;29;20043;-76
2022/04/09 09:47:20;;;;;;;6.18;4.00;;;7.20;99.90;;;;;;4951575;29;20034;-76
2022/04/09 09:49:56;;;;;;;6.18;3.40;;;7.30;99.90;;;;;;4951598;29;20054;-75
2022/04/09 09:52:36;;;;;;;2.63;2.08;;;7.60;99.90;;;;;;4951569;29;20108;-76
2022/04/09 09:55:10;;;;;;;2.88;2.47;;;7.10;99.90;;;;;;4933883;29;20027;-76
2022/04/09 09:57:38;;;;;;;4.57;2.63;;;7.20;99.90;;;;;;4951943;28;20031;-75
2022/04/09 10:00:13;;;;;;;4.93;2.95;;;7.10;99.90;;;;;;4954789;29;20031;-75
2022/04/09 10:02:40;;;;;;;5.10;2.20;;;6.60;99.90;;;;;;4955134;29;20023;-76
2022/04/09 10:05:06;;;;;;;4.70;2.67;;;6.70;99.90;;;;;;4954962;29;20032;-75
2022/04/09 10:07:34;;;;;;;4.00;2.70;;;6.60;99.90;;;;;;4937633;29;20070;-76
2022/04/09 10:10:05;;;;;;;3.60;2.60;;;6.70;99.90;;;;;;4938132;29;20459;-75
2022/04/09 10:12:41;;;;;;;3.25;2.55;;;6.90;99.90;;;;;;4937429;29;20519;-76
2022/04/09 10:15:08;;;;;;;4.65;2.33;;;7.10;99.90;;;;;;4937784;29;20242;-75
2022/04/09 10:17:35;;;;;;;3.20;2.67;;;7.20;99.90;;;;;;4937295;29;20069;-76
2022/04/09 10:20:04;;;;;;;5.40;2.40;;;7.30;99.90;;;;;;4937213;29;20562;-75
2022/04/09 10:22:35;;;;;;;;;;;7.60;99.90;;;;;;4937676;29;20042;-76
2022/04/09 10:25:03;;;;;;;4.55;2.58;;;7.30;96.50;;;;;;4954534;29;19917;-76
2022/04/09 10:27:44;;;;;;;2.17;1.98;;;7.40;97.70;;;;;;4937131;29;20046;-76
2022/04/09 10:30:22;;;;;;;2.95;2.58;;;7.20;96.90;;;;;;4936903;29;20054;-76
2022/04/09 10:32:51;;;;;;;2.20;1.98;;;7.40;95.70;;;;;;4937172;29;20042;-76
2022/04/09 10:35:44;;;;;;;1.73;1.63;;;7.30;95.10;;;;;;4954576;29;20023;-75
2022/04/09 10:38:09;;;;;;;2.05;1.65;;;6.70;93.00;;;;;;4954116;29;20539;-75
2022/04/09 10:40:55;;;;;;;2.85;1.88;;;6.70;98.80;;;;;;4937042;29;20039;-76
2022/04/09 10:43:21;;;;;;;2.58;2.38;;;6.50;98.40;;;;;;4953831;29;20424;-76
2022/04/09 10:46:02;;;;;;;4.32;2.25;;;6.50;99.90;;;;;;4936824;29;20024;-76
2022/04/09 10:48:42;;;;;;;2.80;2.45;;;6.80;99.90;;;;;;4954049;28;20110;-76
2022/04/09 10:51:12;;;;;;;15.25;5.57;;;7.30;99.90;;;;;;4953852;29;20032;-76
2022/04/09 10:53:48;;;;;;;;;;;7.70;99.90;;;;;;4953793;29;20520;-76
2022/04/09 10:56:21;;;;;;;4.07;2.67;;;7.80;99.90;;;;;;4953819;29;20347;-75
2022/04/09 10:59:01;;;;;;;2.40;2.17;;;8.00;94.90;;;;;;4953808;29;20346;-75
2022/04/09 11:01:50;;;;;;;2.10;1.90;;;8.20;92.10;;;;;;4936378;29;20042;-75
2022/04/09 11:07:04;;;;;;;2.50;2.10;;;9.20;89.70;;;;;;4953918;28;20054;-75
2022/04/09 11:10:00;;;;;;;2.88;1.67;;;9.10;80.20;;;;;;4935529;29;20090;-76
2022/04/09 11:12:37;;;;;;;1.85;1.70;;;9.00;86.10;;;;;;4937203;29;20050;-76
2022/04/09 11:15:05;;;;;;;1.92;1.83;;;9.10;81.80;;;;;;4936297;29;20024;-75
2022/04/09 11:17:31;;;;;;;2.33;2.13;;;8.40;85.10;;;;;;4953515;29;20054;-75
2022/04/09 11:20:14;;;;;;;4.35;1.80;;;8.30;86.00;;;;;;4936406;29;20035;-75
2022/04/09 11:22:52;;;;;;;2.08;1.85;;;8.30;81.50;;;;;;4953601;29;20098;-75
2022/04/09 11:25:26;;;;;;;3.40;1.98;;;8.00;92.90;;;;;;4953403;29;20086;-75
2022/04/09 11:27:53;;;;;;;2.53;2.33;;;7.80;95.60;;;;;;4935975;28;20115;-75
2022/04/09 11:30:19;;;;;;;3.83;3.20;;;7.90;99.90;;;;;;4953278;29;20061;-75
2022/04/09 11:32:48;;;;;;;3.67;2.90;;;7.80;98.90;;;;;;4935891;29;20031;-75
2022/04/09 11:35:16;;;;;;;6.05;2.42;;;7.60;99.90;;;;;;4953336;29;20061;-75
2022/04/09 11:37:48;;;;;;;2.35;2.15;;;7.40;99.90;;;;;;4953475;29;20297;-75
2022/04/09 11:40:16;;;;;;;2.88;2.08;;;7.60;99.90;;;;;;4935917;29;20624;-74
2022/04/09 11:42:48;;;;;;;2.70;2.45;;;8.20;98.80;;;;;;4953081;29;20059;-75
2022/04/09 11:45:31;;;;;;;4.43;2.53;;;8.90;97.50;;;;;;4953563;29;20424;-75
2022/04/09 11:48:02;;;;;;;2.92;2.58;;;9.50;96.70;;;;;;4953061;29;20511;-75
2022/04/09 11:50:47;;;;;;;3.28;2.20;;;8.90;92.50;;;;;;4936036;29;20412;-75
2022/04/09 11:53:19;;;;;;;2.50;2.30;;;9.30;99.90;;;;;;4953012;29;20027;-75
2022/04/09 11:55:45;;;;;;;3.03;2.78;;;9.00;93.00;;;;;;4953274;29;20019;-75
2022/04/09 11:58:14;;;;;;;5.70;2.42;;;9.30;90.80;;;;;;4953428;29;20050;-75
2022/04/09 12:00:46;;;;;;;3.72;3.08;;;9.40;90.70;;;;;;4953447;29;20031;-75
2022/04/09 12:03:13;;;;;;;5.63;2.20;;;9.90;87.90;;;;;;4953127;28;20579;-75
2022/04/09 12:05:51;;;;;;;2.47;2.28;;;10.00;80.40;;;;;;4952755;29;20023;-75
2022/04/09 12:08:23;;;;;;;2.10;1.92;;;9.50;84.60;;;;;;4935377;29;20024;-75
2022/04/09 12:10:54;;;;;;;3.33;2.13;;;9.60;82.20;;;;;;4935931;29;20055;-75
2022/04/09 12:13:24;;;;;;;3.67;2.42;;;9.80;90.20;;;;;;4952717;29;20104;-75
2022/04/09 12:15:50;;;;;;;1.73;1.63;;;10.10;85.10;;;;;;4953207;29;20267;-75
2022/04/09 12:18:25;;;;;;;3.03;2.03;;;10.60;79.20;;;;;;4953111;29;20263;-75
2022/04/09 12:20:51;;;;;;;2.20;1.98;;;10.60;77.00;;;;;;4952372;28;20042;-75
2022/04/09 12:23:31;;;;;;;4.45;2.28;;;10.30;75.30;;;;;;4953154;28;20023;-75
2022/04/09 12:25:58;;;;;;;2.38;2.05;;;9.90;76.70;;;;;;4953738;29;20023;-75
2022/04/09 12:28:27;;;;;;;2.28;1.80;;;10.90;76.70;;;;;;4952597;28;20050;-75
2022/04/09 12:30:55;;;;;;;2.42;2.00;;;10.40;74.30;;;;;;4952503;29;20404;-74
2022/04/09 12:33:22;;;;;;;2.75;2.33;;;10.40;75.70;;;;;;4952903;29;20496;-75
2022/04/09 12:35:48;;;;;;;3.38;2.72;;;10.40;75.10;;;;;;4953219;29;20041;-75
2022/04/09 12:38:36;;;;;;;4.63;2.40;;;10.40;79.00;;;;;;4954264;29;20034;-75
2022/04/09 12:41:07;;;;;;;2.42;2.22;;;10.60;79.90;;;;;;4952088;29;20530;-75
2022/04/09 12:43:35;;;;;;;2.58;2.38;;;10.90;80.70;;;;;;4952205;29;20412;-75
2022/04/09 12:46:03;;;;;;;3.00;1.92;;;11.10;78.70;;;;;;4952739;29;20030;-75
2022/04/09 12:48:45;;;;;;;2.40;2.20;;;11.00;78.40;;;;;;4952199;29;20023;-75
2022/04/09 12:51:13;;;;;;;2.17;2.03;;;11.30;78.00;;;;;;4952195;29;20050;-75
2022/04/09 12:53:40;;;;;;;7.57;2.10;;;11.60;77.60;;;;;;4953343;28;20275;-75
2022/04/09 12:56:08;;;;;;;3.28;1.83;;;11.90;73.70;;;;;;4953657;29;20102;-75
2022/04/09 12:58:34;;;;;;;4.05;2.05;;;11.30;73.70;;;;;;4952535;29;20489;-75
2022/04/09 13:01:00;;;;;;;2.15;1.75;;;10.70;78.70;;;;;;4953973;29;20031;-74
2022/04/09 13:03:26;;;;;;;2.08;1.90;;;10.70;73.60;;;;;;4953122;29;20027;-77
2022/04/09 13:05:52;;;;;;;3.63;1.85;;;10.40;73.70;;;;;;4938092;29;20110;-75